Time;durP1;ratioP1;P1;durP2;ratioP2;P2;SDS_P1;SDS_P2;PMS_P1;PMS_P2;Temp;Humidity;BMP_temperature;BMP_pressure;BME280_temperature;BME280_humidity;BME280_pressure;Samples;Min_cycle;Max_cycle;Signal;HPM_P1;HPM_P2
2022/05/15 00:02:37;;;;;;;5.87;3.70;;;22.50;82.30;;;;;;5078746;28;20185;-80
2022/05/15 00:05:05;;;;;;;5.00;3.80;;;22.80;80.80;;;;;;5073722;28;20595;-86
2022/05/15 00:07:32;;;;;;;4.50;3.70;;;23.00;80.20;;;;;;5062797;28;20211;-82
2022/05/15 00:10:00;;;;;;;4.27;3.33;;;22.90;79.70;;;;;;5078121;28;20265;-78
2022/05/15 00:12:27;;;;;;;4.50;3.47;;;23.00;79.90;;;;;;5074633;28;20179;-79
2022/05/15 00:14:54;;;;;;;4.93;3.53;;;23.00;79.90;;;;;;5072818;28;20206;-77
2022/05/15 00:17:22;;;;;;;5.43;3.83;;;22.90;80.10;;;;;;5074008;28;20207;-81
2022/05/15 00:19:49;;;;;;;3.87;3.30;;;22.80;79.90;;;;;;5082019;28;20671;-86
2022/05/15 00:22:16;;;;;;;3.87;3.37;;;23.00;80.20;;;;;;5084785;28;20748;-78
2022/05/15 00:24:44;;;;;;;8.20;3.00;;;23.00;79.50;;;;;;5073749;28;20225;-84
2022/05/15 00:27:11;;;;;;;4.43;2.77;;;23.20;78.90;;;;;;5067257;28;20634;-79
2022/05/15 00:29:38;;;;;;;4.47;3.07;;;23.20;78.40;;;;;;5079141;28;20179;-78
2022/05/15 00:32:06;;;;;;;4.57;2.50;;;23.20;78.20;;;;;;5071809;28;20202;-84
2022/05/15 00:34:34;;;;;;;4.30;2.90;;;23.30;77.90;;;;;;5076280;28;20236;-78
2022/05/15 00:37:01;;;;;;;2.67;2.47;;;23.40;77.60;;;;;;5081208;28;20207;-78
2022/05/15 00:39:28;;;;;;;5.93;3.07;;;23.50;77.10;;;;;;5073819;28;20182;-77
2022/05/15 00:41:56;;;;;;;6.27;3.33;;;23.50;77.10;;;;;;5075279;28;20191;-79
2022/05/15 00:44:23;;;;;;;5.30;4.23;;;23.50;77.60;;;;;;5079244;28;20191;-80
2022/05/15 00:46:51;;;;;;;6.33;4.03;;;23.40;77.60;;;;;;5073053;28;20248;-77
2022/05/15 00:49:18;;;;;;;4.03;3.40;;;23.40;78.20;;;;;;5072746;28;20228;-77
2022/05/15 00:51:56;;;;;;;5.57;3.50;;;23.50;78.20;;;;;;5072789;28;20180;-80
2022/05/15 00:54:26;;;;;;;6.70;3.10;;;23.50;78.20;;;;;;5072811;28;20210;-76
2022/05/15 00:57:01;;;;;;;7.93;5.30;;;23.70;77.70;;;;;;5073711;28;20191;-77
2022/05/15 00:59:33;;;;;;;8.20;4.20;;;23.90;77.40;;;;;;5072648;28;20193;-77
2022/05/15 01:02:00;;;;;;;5.70;4.10;;;23.90;76.40;;;;;;5079247;28;20186;-77
2022/05/15 01:04:29;;;;;;;11.53;8.60;;;23.90;76.90;;;;;;5071754;28;20179;-76
2022/05/15 01:06:56;;;;;;;6.47;4.23;;;24.10;76.40;;;;;;5069763;28;20723;-76
2022/05/15 01:09:24;;;;;;;4.50;3.03;;;24.20;75.90;;;;;;5073177;28;20297;-74
2022/05/15 01:11:51;;;;;;;4.57;3.47;;;24.20;74.80;;;;;;5078481;28;20182;-75
2022/05/15 01:14:21;;;;;;;4.37;3.10;;;24.10;74.70;;;;;;5070039;28;20178;-76
2022/05/15 01:16:48;;;;;;;6.83;4.33;;;24.20;74.80;;;;;;5068286;28;20215;-74
2022/05/15 01:19:15;;;;;;;3.73;2.90;;;24.30;75.20;;;;;;5061164;28;20198;-75
2022/05/15 01:21:57;;;;;;;7.80;4.83;;;24.30;74.40;;;;;;5072170;28;20196;-73
2022/05/15 01:24:25;;;;;;;4.67;4.20;;;24.40;74.90;;;;;;5073109;28;20179;-73
2022/05/15 01:26:53;;;;;;;6.03;3.27;;;24.40;74.50;;;;;;5052893;28;20259;-75
2022/05/15 01:29:32;;;;;;;5.03;3.20;;;24.30;74.40;;;;;;5065254;28;20187;-73
2022/05/15 01:32:01;;;;;;;3.90;2.90;;;24.30;74.40;;;;;;5072716;28;20170;-75
2022/05/15 01:34:29;;;;;;;6.50;2.60;;;24.40;73.80;;;;;;5073782;28;20203;-77
2022/05/15 01:36:59;;;;;;;4.23;2.50;;;24.50;73.40;;;;;;5073553;28;20219;-75
2022/05/15 01:39:30;;;;;;;5.20;2.57;;;24.40;73.10;;;;;;5083136;28;20707;-78
2022/05/15 01:41:58;;;;;;;4.13;2.77;;;24.30;73.50;;;;;;5056481;28;20183;-74
2022/05/15 01:44:26;;;;;;;4.63;3.47;;;24.30;74.90;;;;;;5072634;28;20272;-78
2022/05/15 01:46:54;;;;;;;6.67;3.00;;;24.20;75.80;;;;;;5072229;28;20580;-73
2022/05/15 01:49:21;;;;;;;4.43;3.43;;;24.50;75.80;;;;;;5072801;28;20187;-74
2022/05/15 01:51:49;;;;;;;3.17;2.33;;;25.00;72.30;;;;;;5072379;28;20171;-86
2022/05/15 01:54:17;;;;;;;4.33;2.20;;;25.30;71.10;;;;;;5071687;28;20211;-77
2022/05/15 01:56:44;;;;;;;4.00;2.23;;;25.70;69.20;;;;;;5071955;28;20224;-75
2022/05/15 01:59:12;;;;;;;4.73;3.80;;;25.80;66.90;;;;;;5072062;28;20195;-75
2022/05/15 02:01:40;;;;;;;3.03;2.00;;;25.90;67.00;;;;;;5071992;28;20250;-74
2022/05/15 02:04:07;;;;;;;2.63;1.73;;;26.00;65.90;;;;;;5071249;28;20180;-73
2022/05/15 02:06:35;;;;;;;2.30;1.70;;;25.80;66.10;;;;;;5071845;28;20518;-76
2022/05/15 02:09:03;;;;;;;4.77;1.77;;;25.60;67.20;;;;;;5072680;28;20178;-76
2022/05/15 02:11:31;;;;;;;3.07;1.60;;;25.80;66.00;;;;;;5078046;28;20589;-75
2022/05/15 02:13:58;;;;;;;4.97;2.40;;;25.90;64.80;;;;;;5072461;28;20218;-76
2022/05/15 02:16:26;;;;;;;2.80;1.50;;;26.10;64.80;;;;;;5072096;28;20293;-76
2022/05/15 02:18:53;;;;;;;3.10;1.77;;;26.50;63.20;;;;;;5084138;28;20624;-78
2022/05/15 02:21:21;;;;;;;3.87;1.63;;;27.10;61.00;;;;;;5081713;28;20262;-75
2022/05/15 02:23:48;;;;;;;3.63;2.40;;;27.70;59.80;;;;;;5071189;28;20167;-72
2022/05/15 02:26:16;;;;;;;3.33;1.93;;;27.60;61.30;;;;;;5071473;28;20726;-75
2022/05/15 02:28:43;;;;;;;4.43;2.03;;;27.20;61.00;;;;;;5072014;28;20186;-74
2022/05/15 02:31:11;;;;;;;8.07;2.63;;;27.30;61.40;;;;;;5071892;28;20232;-76
2022/05/15 02:33:38;;;;;;;3.33;2.60;;;27.10;61.40;;;;;;5075287;28;20175;-71
2022/05/15 02:36:05;;;;;;;3.10;1.90;;;26.80;61.90;;;;;;5066437;28;20211;-73
2022/05/15 02:38:33;;;;;;;3.70;1.77;;;26.70;59.80;;;;;;5075761;28;20186;-77
2022/05/15 02:41:01;;;;;;;3.40;2.00;;;26.50;63.70;;;;;;5072714;28;20499;-72
2022/05/15 02:43:28;;;;;;;2.70;1.83;;;26.30;64.40;;;;;;5072269;28;20222;-72
2022/05/15 02:45:56;;;;;;;2.57;1.93;;;26.10;63.70;;;;;;5070198;28;20660;-71
2022/05/15 02:51:09;;;;;;;2.30;1.50;;;26.00;62.50;;;;;;5076188;28;20170;-75
2022/05/15 02:53:40;;;;;;;2.00;1.40;;;25.90;61.30;;;;;;5074712;28;20229;-73
2022/05/15 02:56:15;;;;;;;4.63;1.10;;;25.80;62.70;;;;;;5086374;28;20267;-75
2022/05/15 02:58:43;;;;;;;2.63;1.00;;;25.70;63.10;;;;;;5083547;28;20551;-76
2022/05/15 03:01:11;;;;;;;1.87;1.10;;;25.50;61.50;;;;;;5091410;28;20727;-76
2022/05/15 03:03:38;;;;;;;1.53;1.00;;;25.50;62.80;;;;;;5074538;28;20225;-74
2022/05/15 03:06:07;;;;;;;2.37;1.27;;;25.50;62.90;;;;;;5074273;28;20167;-75
2022/05/15 03:08:36;;;;;;;3.07;1.30;;;25.50;62.80;;;;;;5075686;28;20176;-76
2022/05/15 03:11:04;;;;;;;1.70;1.03;;;25.60;63.00;;;;;;5074672;28;20217;-76
2022/05/15 03:13:31;;;;;;;4.03;1.23;;;25.30;62.20;;;;;;5074412;28;20295;-73
2022/05/15 03:15:59;;;;;;;1.27;1.17;;;25.30;63.60;;;;;;5075081;28;20638;-75
2022/05/15 03:18:26;;;;;;;2.63;1.47;;;25.30;63.80;;;;;;5072171;28;20182;-75
2022/05/15 03:20:54;;;;;;;3.37;1.33;;;25.30;63.70;;;;;;5074075;28;20206;-76
2022/05/15 03:23:21;;;;;;;3.10;1.20;;;25.20;63.90;;;;;;5074060;28;20266;-78
2022/05/15 03:25:48;;;;;;;1.57;1.30;;;25.10;63.80;;;;;;5074825;28;20164;-75
2022/05/15 03:28:16;;;;;;;3.00;1.07;;;25.30;64.00;;;;;;5075428;28;20171;-77
2022/05/15 03:30:45;;;;;;;2.60;1.50;;;25.50;63.40;;;;;;5075303;28;20174;-78
2022/05/15 03:33:12;;;;;;;2.43;1.30;;;25.60;63.80;;;;;;5072580;28;20179;-78
2022/05/15 03:35:40;;;;;;;1.73;1.00;;;25.70;63.70;;;;;;5055297;28;20255;-76
2022/05/15 03:38:09;;;;;;;3.07;1.27;;;25.70;63.00;;;;;;5055184;28;20176;-75
2022/05/15 03:40:37;;;;;;;1.80;1.00;;;25.80;63.20;;;;;;5070762;28;20187;-76
2022/05/15 03:43:04;;;;;;;3.00;1.10;;;25.80;63.20;;;;;;5073570;28;20246;-77
2022/05/15 03:45:33;;;;;;;3.90;1.43;;;25.90;62.50;;;;;;5072236;28;20175;-76
2022/05/15 03:48:00;;;;;;;4.00;1.50;;;25.80;62.60;;;;;;5068391;28;20325;-79
2022/05/15 03:50:28;;;;;;;2.50;1.20;;;25.60;63.80;;;;;;5072248;28;20187;-77
2022/05/15 03:52:56;;;;;;;2.97;1.60;;;25.50;63.70;;;;;;5074638;28;20179;-77
2022/05/15 03:55:23;;;;;;;2.30;1.37;;;25.60;64.00;;;;;;5074561;28;20336;-76
2022/05/15 03:57:55;;;;;;;1.47;1.30;;;25.70;64.60;;;;;;5074661;28;20252;-76
2022/05/15 04:00:24;;;;;;;2.80;1.30;;;25.80;65.10;;;;;;5074800;28;20207;-77
2022/05/15 04:02:51;;;;;;;2.50;1.43;;;25.90;64.20;;;;;;5072175;28;20183;-78
2022/05/15 04:05:19;;;;;;;3.07;1.23;;;25.80;64.00;;;;;;5074283;28;20271;-77
2022/05/15 04:07:50;;;;;;;1.93;1.43;;;25.60;63.70;;;;;;5067405;28;20180;-74
2022/05/15 04:10:20;;;;;;;5.73;1.70;;;25.60;64.40;;;;;;5072037;28;20262;-75
2022/05/15 04:12:48;;;;;;;4.93;1.77;;;25.70;64.00;;;;;;5054899;28;20175;-75
2022/05/15 04:15:16;;;;;;;3.73;1.60;;;25.90;64.00;;;;;;5071466;28;20294;-76
2022/05/15 04:17:51;;;;;;;6.47;2.80;;;25.90;65.20;;;;;;5072759;28;20744;-75
2022/05/15 04:20:24;;;;;;;4.07;2.07;;;25.90;66.90;;;;;;5094561;28;20265;-76
2022/05/15 04:22:52;;;;;;;3.63;2.10;;;25.90;68.00;;;;;;5072361;28;20233;-74
2022/05/15 04:25:21;;;;;;;5.20;2.30;;;25.80;68.40;;;;;;5073634;28;20640;-77
2022/05/15 04:27:49;;;;;;;4.13;2.23;;;25.70;68.40;;;;;;5087579;28;20226;-75
2022/05/15 04:30:23;;;;;;;5.30;2.63;;;25.40;68.70;;;;;;5078731;28;20206;-75
2022/05/15 04:32:51;;;;;;;7.47;2.90;;;25.30;69.80;;;;;;5080073;28;20191;-76
2022/05/15 04:35:20;;;;;;;3.93;2.13;;;25.20;70.40;;;;;;5074620;28;20621;-75
2022/05/15 04:37:50;;;;;;;2.93;2.60;;;25.20;70.80;;;;;;5075545;28;20601;-76
2022/05/15 04:40:19;;;;;;;6.07;2.60;;;25.20;70.90;;;;;;5091101;28;20197;-76
2022/05/15 04:42:46;;;;;;;3.83;2.27;;;25.10;71.10;;;;;;5090484;28;20226;-75
2022/05/15 04:45:13;;;;;;;6.23;2.43;;;25.00;72.00;;;;;;5080696;28;20598;-75
2022/05/15 04:47:43;;;;;;;4.97;2.37;;;25.00;71.30;;;;;;5088052;28;20209;-74
2022/05/15 04:50:14;;;;;;;6.60;2.43;;;24.80;71.10;;;;;;5090420;28;20206;-74
2022/05/15 04:52:45;;;;;;;4.57;2.47;;;24.70;71.30;;;;;;5073395;28;20271;-74
2022/05/15 04:55:12;;;;;;;4.80;2.17;;;24.60;71.90;;;;;;5078917;28;20271;-75
2022/05/15 04:57:40;;;;;;;4.63;2.20;;;24.40;72.00;;;;;;5073552;28;20597;-75
2022/05/15 05:00:13;;;;;;;5.73;2.30;;;24.40;72.50;;;;;;5073191;28;20255;-75
2022/05/15 05:02:41;;;;;;;4.80;2.13;;;24.30;72.70;;;;;;5073238;28;20198;-74
2022/05/15 05:05:09;;;;;;;8.00;2.90;;;24.30;73.00;;;;;;5073368;28;20179;-76
2022/05/15 05:07:36;;;;;;;5.87;3.47;;;24.20;73.50;;;;;;5072370;28;20179;-74
2022/05/15 05:10:04;;;;;;;13.37;3.93;;;24.00;74.70;;;;;;5073316;28;20179;-75
2022/05/15 05:12:32;;;;;;;9.00;3.20;;;23.90;75.20;;;;;;5074269;28;20176;-76
2022/05/15 05:14:59;;;;;;;11.10;3.50;;;23.80;75.90;;;;;;5073452;28;20194;-75
2022/05/15 05:17:27;;;;;;;7.70;3.20;;;23.80;76.70;;;;;;5073420;28;20635;-75
2022/05/15 05:19:54;;;;;;;9.27;3.70;;;23.80;77.80;;;;;;5057918;28;20705;-75
2022/05/15 05:22:25;;;;;;;10.23;3.83;;;23.70;79.00;;;;;;5060312;28;20300;-76
2022/05/15 05:24:52;;;;;;;8.87;3.20;;;23.60;79.70;;;;;;5073450;28;20167;-76
2022/05/15 05:27:20;;;;;;;9.63;3.20;;;23.50;80.20;;;;;;5072941;28;20168;-77
2022/05/15 05:29:47;;;;;;;5.53;2.80;;;23.40;80.10;;;;;;5072896;28;20523;-77
2022/05/15 05:32:15;;;;;;;9.07;2.80;;;23.30;80.80;;;;;;5073081;28;20175;-77
2022/05/15 05:34:42;;;;;;;6.73;3.27;;;23.30;81.30;;;;;;5058572;28;20206;-77
2022/05/15 05:37:09;;;;;;;14.70;4.33;;;23.20;82.00;;;;;;5053075;28;20606;-76
2022/05/15 05:39:37;;;;;;;10.87;3.97;;;23.10;83.00;;;;;;5053167;28;20172;-77
2022/05/15 05:42:05;;;;;;;11.27;3.27;;;22.90;82.10;;;;;;5052511;28;20220;-76
2022/05/15 05:44:32;;;;;;;6.97;3.07;;;22.90;82.60;;;;;;5052918;28;20630;-76
2022/05/15 05:47:00;;;;;;;6.17;3.03;;;22.80;82.80;;;;;;5052744;28;20584;-77
2022/05/15 05:49:27;;;;;;;3.20;2.27;;;22.90;83.10;;;;;;5068020;28;20207;-77
2022/05/15 05:51:54;;;;;;;4.67;2.30;;;22.80;82.60;;;;;;5072755;28;20182;-76
2022/05/15 05:54:22;;;;;;;5.63;2.50;;;22.80;82.90;;;;;;5072868;28;20250;-77
2022/05/15 05:56:49;;;;;;;5.53;2.30;;;22.70;82.80;;;;;;5072615;28;20241;-76
2022/05/15 05:59:17;;;;;;;5.43;1.80;;;22.70;83.00;;;;;;5072950;28;20270;-77
2022/05/15 06:01:44;;;;;;;5.00;1.93;;;22.70;83.00;;;;;;5072282;28;20176;-76
2022/05/15 06:06:57;;;;;;;5.57;2.00;;;22.50;82.50;;;;;;5072086;28;20644;-76
2022/05/15 06:09:24;;;;;;;3.63;2.03;;;22.40;82.40;;;;;;5052622;28;20192;-75
2022/05/15 06:11:52;;;;;;;6.30;2.53;;;22.30;82.50;;;;;;5052323;28;20521;-76
2022/05/15 06:14:19;;;;;;;5.63;2.53;;;22.30;83.10;;;;;;5052495;28;20168;-76
2022/05/15 06:16:46;;;;;;;8.07;4.17;;;22.30;83.30;;;;;;5051005;28;20219;-76
2022/05/15 06:19:14;;;;;;;10.80;4.07;;;22.30;83.30;;;;;;5052620;28;20180;-76
2022/05/15 06:21:41;;;;;;;16.83;6.33;;;22.30;83.60;;;;;;5056334;28;20175;-76
2022/05/15 06:24:09;;;;;;;17.43;7.20;;;22.20;83.70;;;;;;5072348;28;20201;-76
2022/05/15 06:26:36;;;;;;;26.80;10.20;;;22.20;83.90;;;;;;5072474;28;20559;-75
2022/05/15 06:29:04;;;;;;;17.20;7.20;;;22.20;84.60;;;;;;5071257;28;20175;-76
2022/05/15 06:31:31;;;;;;;14.00;5.00;;;22.20;85.00;;;;;;5072276;28;20173;-75
2022/05/15 06:33:58;;;;;;;10.30;4.33;;;22.10;85.40;;;;;;5063336;28;20171;-75
2022/05/15 06:36:26;;;;;;;12.57;3.90;;;22.00;85.50;;;;;;5052257;28;20210;-74
2022/05/15 06:38:53;;;;;;;11.93;4.00;;;22.00;85.60;;;;;;5052380;28;20176;-75
2022/05/15 06:41:20;;;;;;;10.43;4.10;;;21.90;85.40;;;;;;5052122;28;20204;-75
2022/05/15 06:43:48;;;;;;;9.57;3.90;;;21.80;85.50;;;;;;5051854;28;20239;-75
2022/05/15 06:46:15;;;;;;;11.17;4.13;;;21.80;85.60;;;;;;5052296;28;20194;-75
2022/05/15 06:48:43;;;;;;;13.60;4.27;;;21.80;85.80;;;;;;5052092;28;20174;-75
2022/05/15 06:51:14;;;;;;;9.20;3.70;;;21.80;86.20;;;;;;5050992;28;20180;-75
2022/05/15 06:53:41;;;;;;;8.80;3.43;;;21.80;86.20;;;;;;5052387;28;20188;-76
2022/05/15 06:58:54;;;;;;;10.97;3.63;;;21.70;86.20;;;;;;5052479;28;20513;-75
2022/05/15 07:01:21;;;;;;;7.23;3.50;;;21.70;86.30;;;;;;5052069;28;20172;-77
2022/05/15 07:03:49;;;;;;;6.30;3.90;;;21.70;86.70;;;;;;5051671;28;20187;-75
2022/05/15 07:06:16;;;;;;;9.20;3.80;;;21.70;86.80;;;;;;5058846;28;20207;-76
2022/05/15 07:08:43;;;;;;;11.93;3.50;;;21.60;86.80;;;;;;5062565;28;20214;-75
2022/05/15 07:11:12;;;;;;;8.13;3.50;;;21.60;87.30;;;;;;5051947;28;20184;-74
2022/05/15 07:13:40;;;;;;;10.40;4.40;;;21.50;87.40;;;;;;5069517;28;20202;-75
2022/05/15 07:16:08;;;;;;;9.90;4.20;;;21.50;87.30;;;;;;5071893;28;20201;-75
2022/05/15 07:18:37;;;;;;;7.43;3.47;;;21.40;87.20;;;;;;5072375;28;20190;-76
2022/05/15 07:21:05;;;;;;;7.27;3.77;;;21.40;87.30;;;;;;5057725;28;20665;-75
2022/05/15 07:23:32;;;;;;;8.83;4.23;;;21.40;87.30;;;;;;5073964;28;20296;-75
2022/05/15 07:26:00;;;;;;;13.13;4.40;;;21.30;87.30;;;;;;5075243;28;20179;-75
2022/05/15 07:28:27;;;;;;;9.67;4.17;;;21.40;87.40;;;;;;5074952;28;20168;-75
2022/05/15 07:30:55;;;;;;;10.50;4.70;;;21.40;87.60;;;;;;5075485;28;20175;-76
2022/05/15 07:33:24;;;;;;;11.27;4.13;;;21.40;87.50;;;;;;5071526;28;20263;-76
2022/05/15 07:35:53;;;;;;;11.13;4.10;;;21.40;87.70;;;;;;5054939;28;20218;-75
2022/05/15 07:38:20;;;;;;;10.87;4.17;;;21.30;87.80;;;;;;5055548;28;20184;-74
2022/05/15 07:40:47;;;;;;;10.90;5.93;;;21.30;88.00;;;;;;5055128;28;20638;-75
2022/05/15 07:43:15;;;;;;;12.53;5.97;;;21.30;88.20;;;;;;5055091;28;20215;-75
2022/05/15 07:45:44;;;;;;;13.50;6.07;;;21.30;88.30;;;;;;5057341;28;20623;-75
2022/05/15 07:48:12;;;;;;;13.27;6.33;;;21.30;88.30;;;;;;5052802;28;20168;-75
2022/05/15 07:50:40;;;;;;;13.53;5.23;;;21.30;88.50;;;;;;5054962;28;20646;-75
2022/05/15 07:53:07;;;;;;;11.03;5.07;;;21.20;88.50;;;;;;5069447;28;20211;-75
2022/05/15 07:55:35;;;;;;;12.30;4.83;;;21.20;88.50;;;;;;5073578;28;20677;-76
2022/05/15 07:58:02;;;;;;;9.70;5.10;;;21.20;88.40;;;;;;5074713;28;20164;-75
2022/05/15 08:00:29;;;;;;;9.33;4.77;;;21.20;88.40;;;;;;5072746;28;20252;-75
2022/05/15 08:03:08;;;;;;;13.07;4.67;;;21.20;88.60;;;;;;5054715;28;20195;-75
2022/05/15 08:08:23;;;;;;;8.80;4.33;;;21.10;88.50;;;;;;5055117;28;20210;-75
2022/05/15 08:10:51;;;;;;;9.10;4.33;;;21.10;88.40;;;;;;5053602;28;20580;-76
2022/05/15 08:13:24;;;;;;;11.80;4.27;;;21.10;88.30;;;;;;5056020;28;20270;-76
2022/05/15 08:15:52;;;;;;;9.33;4.07;;;21.00;88.30;;;;;;5074551;28;20217;-77
2022/05/15 08:23:54;;;;;;;10.63;5.70;;;21.00;88.70;;;;;;5054657;28;20587;-75
2022/05/15 08:26:22;;;;;;;12.90;5.70;;;21.00;88.70;;;;;;5054453;28;20179;-75
2022/05/15 08:28:50;;;;;;;13.67;6.57;;;21.00;88.70;;;;;;5053636;28;20538;-76
2022/05/15 08:31:19;;;;;;;10.60;5.47;;;21.00;88.70;;;;;;5054036;28;20207;-76
2022/05/15 08:33:47;;;;;;;9.83;5.37;;;21.00;88.70;;;;;;5054022;28;20623;-76
2022/05/15 08:36:17;;;;;;;14.20;6.20;;;20.90;88.60;;;;;;5052945;28;20357;-75
2022/05/15 08:38:44;;;;;;;13.40;6.10;;;21.00;88.80;;;;;;5054380;28;20286;-75
2022/05/15 08:41:39;;;;;;;10.67;6.10;;;21.00;89.00;;;;;;5067046;28;20176;-76
2022/05/15 08:44:09;;;;;;;13.70;6.27;;;21.00;89.10;;;;;;5064052;28;20742;-76
2022/05/15 08:46:50;;;;;;;9.53;5.80;;;21.00;89.20;;;;;;5071451;28;20170;-75
2022/05/15 08:49:27;;;;;;;7.97;5.87;;;21.00;89.30;;;;;;5062838;28;20228;-75
2022/05/15 08:52:09;;;;;;;13.57;6.27;;;20.90;89.40;;;;;;5071870;28;20177;-76
2022/05/15 08:54:44;;;;;;;14.27;6.37;;;21.00;89.50;;;;;;5052957;28;20210;-75
2022/05/15 08:57:37;;;;;;;15.07;7.53;;;21.00;89.60;;;;;;5054577;28;20324;-76
2022/05/15 09:00:10;;;;;;;16.63;7.40;;;21.00;89.60;;;;;;5064313;28;20641;-75
2022/05/15 09:02:44;;;;;;;17.73;8.77;;;21.00;89.80;;;;;;5074902;28;20195;-76
2022/05/15 09:05:14;;;;;;;15.90;8.70;;;20.90;89.80;;;;;;5072715;28;20210;-75
2022/05/15 09:08:09;;;;;;;15.87;9.10;;;20.90;89.70;;;;;;5073530;28;20266;-75
2022/05/15 09:10:57;;;;;;;17.10;8.50;;;20.90;89.80;;;;;;5080781;28;20183;-75
2022/05/15 09:13:46;;;;;;;14.20;7.77;;;20.90;89.80;;;;;;5062234;28;20188;-74
2022/05/15 09:16:26;;;;;;;19.17;8.87;;;20.90;89.90;;;;;;5075519;28;20277;-75
2022/05/15 09:19:01;;;;;;;15.43;7.83;;;20.90;90.10;;;;;;5077589;28;20186;-74
2022/05/15 09:21:28;;;;;;;15.00;7.50;;;20.90;90.10;;;;;;5061588;28;20187;-73
2022/05/15 09:24:03;;;;;;;16.47;8.27;;;20.80;90.10;;;;;;5072952;28;20586;-75
2022/05/15 09:26:41;;;;;;;12.40;7.47;;;20.80;90.10;;;;;;5072454;28;20174;-73
2022/05/15 09:29:21;;;;;;;15.23;7.77;;;20.80;90.10;;;;;;5072774;28;20254;-74
2022/05/15 09:31:49;;;;;;;13.93;7.57;;;20.80;90.20;;;;;;5071626;28;20206;-74
2022/05/15 09:34:26;;;;;;;15.80;7.63;;;20.80;90.30;;;;;;5065701;28;20187;-74
2022/05/15 09:38:27;;;;;;;12.23;7.80;;;20.70;90.40;;;;;;5071035;28;20214;-75
2022/05/15 09:39:50;;;;;;;18.70;8.83;;;20.60;90.40;;;;;;5071234;28;20186;-74
2022/05/15 09:45:08;;;;;;;17.20;8.00;;;20.60;90.80;;;;;;5062861;28;20193;-76
2022/05/15 09:47:39;;;;;;;19.70;9.00;;;20.50;90.70;;;;;;5069003;28;20190;-75
2022/05/15 09:50:29;;;;;;;16.57;8.50;;;20.50;90.80;;;;;;5068664;28;20277;-76
2022/05/15 09:52:58;;;;;;;16.67;8.57;;;20.40;90.90;;;;;;5072516;28;20225;-75
2022/05/15 09:55:28;;;;;;;16.00;8.73;;;20.30;91.20;;;;;;5072900;28;20738;-75
2022/05/15 09:57:58;;;;;;;17.03;8.80;;;20.30;91.40;;;;;;5072314;28;20174;-75
2022/05/15 10:00:29;;;;;;;19.10;10.17;;;20.40;91.60;;;;;;5072163;28;20187;-75
2022/05/15 10:03:05;;;;;;;17.90;9.87;;;20.40;91.80;;;;;;5072412;28;20203;-75
2022/05/15 10:05:36;;;;;;;20.83;9.50;;;20.30;91.80;;;;;;5072768;28;20663;-75
2022/05/15 10:08:11;;;;;;;15.00;8.53;;;20.30;91.80;;;;;;5066453;28;20217;-78
2022/05/15 10:11:08;;;;;;;13.57;8.70;;;20.20;91.80;;;;;;5072114;28;20201;-74
2022/05/15 10:13:55;;;;;;;18.10;8.60;;;20.20;92.00;;;;;;5071844;28;20282;-75
2022/05/15 10:16:30;;;;;;;17.20;9.50;;;20.20;92.20;;;;;;5073029;28;20222;-74
2022/05/15 10:19:09;;;;;;;24.57;10.97;;;20.20;92.20;;;;;;5072511;28;20617;-75
2022/05/15 10:21:43;;;;;;;18.20;10.30;;;20.10;92.40;;;;;;5088120;28;20174;-75
2022/05/15 10:24:37;;;;;;;18.57;9.43;;;20.10;92.30;;;;;;5086395;28;20186;-75
2022/05/15 10:27:46;;;;;;;15.70;9.63;;;20.10;92.40;;;;;;5080010;28;20312;-75
2022/05/15 10:30:21;;;;;;;17.97;9.47;;;20.00;92.30;;;;;;5087475;28;20273;-74
2022/05/15 10:32:58;;;;;;;16.67;9.47;;;19.90;92.30;;;;;;5083479;28;20656;-73
2022/05/15 10:35:47;;;;;;;17.33;9.70;;;19.80;92.30;;;;;;5081840;28;20221;-73
2022/05/15 10:38:42;;;;;;;19.10;10.40;;;19.80;92.40;;;;;;5080094;28;20183;-73
2022/05/15 10:41:21;;;;;;;19.57;9.87;;;19.70;92.50;;;;;;5075878;28;20309;-73
2022/05/15 10:44:27;;;;;;;17.90;10.93;;;19.70;92.60;;;;;;5091874;28;20210;-73
2022/05/15 10:47:08;;;;;;;18.43;11.07;;;19.70;92.70;;;;;;5068858;28;20614;-74
2022/05/15 10:49:53;;;;;;;27.27;12.30;;;19.70;92.90;;;;;;5078323;28;20572;-73
2022/05/15 10:52:26;;;;;;;20.80;11.87;;;19.70;93.00;;;;;;5077633;28;20175;-74
2022/05/15 10:58:34;;;;;;;22.83;12.13;;;19.70;92.90;;;;;;5078274;28;20190;-73
2022/05/15 11:01:20;;;;;;;19.93;11.90;;;19.70;93.00;;;;;;5073252;28;20709;-73
2022/05/15 11:04:14;;;;;;;24.67;12.57;;;19.70;93.10;;;;;;5079872;28;20181;-73
2022/05/15 11:07:08;;;;;;;24.97;16.23;;;19.70;93.30;;;;;;5073381;28;20589;-76
2022/05/15 11:09:40;;;;;;;24.27;13.93;;;19.70;93.30;;;;;;5072391;28;20323;-72
2022/05/15 11:12:28;;;;;;;20.53;13.33;;;19.70;93.30;;;;;;5088420;28;20186;-73
2022/05/15 11:15:25;;;;;;;17.80;10.77;;;19.70;93.30;;;;;;5081163;28;20183;-73
2022/05/15 11:18:14;;;;;;;17.80;11.27;;;19.80;93.20;;;;;;5087366;28;20578;-73
2022/05/15 11:20:47;;;;;;;18.87;10.53;;;19.80;93.20;;;;;;5074892;28;20181;-73
2022/05/15 11:23:25;;;;;;;19.80;11.30;;;19.80;93.10;;;;;;5074845;28;20175;-75
2022/05/15 11:25:55;;;;;;;19.93;12.13;;;19.80;93.10;;;;;;5075005;28;20248;-75
2022/05/15 11:28:53;;;;;;;20.87;10.83;;;19.70;93.20;;;;;;5075088;28;20168;-75
2022/05/15 11:31:55;;;;;;;17.70;11.43;;;19.70;93.10;;;;;;5076747;28;20227;-75
2022/05/15 11:34:41;;;;;;;18.77;11.33;;;19.60;93.00;;;;;;5075252;28;20708;-76
2022/05/15 11:37:39;;;;;;;17.73;10.53;;;19.50;93.10;;;;;;5074920;28;20685;-76
2022/05/15 11:40:35;;;;;;;15.17;8.90;;;19.50;93.10;;;;;;5056844;28;20598;-77
2022/05/15 11:43:40;;;;;;;11.40;8.47;;;19.40;93.20;;;;;;5074218;28;20230;-74
2022/05/15 11:46:09;;;;;;;10.17;7.53;;;19.50;93.10;;;;;;5071322;28;20179;-74
2022/05/15 11:48:39;;;;;;;10.03;7.53;;;19.40;93.00;;;;;;5068441;28;20711;-73
2022/05/15 11:51:13;;;;;;;14.80;7.50;;;19.30;92.90;;;;;;5078286;28;20179;-73
2022/05/15 11:54:04;;;;;;;10.73;7.20;;;19.30;92.70;;;;;;5065166;28;20171;-73
2022/05/15 11:56:47;;;;;;;11.97;7.40;;;19.20;92.80;;;;;;5074531;28;20202;-74
2022/05/15 11:59:17;;;;;;;15.67;8.00;;;19.20;92.80;;;;;;5077873;28;20179;-78
2022/05/15 12:01:51;;;;;;;11.03;6.33;;;19.10;92.80;;;;;;5087320;28;20186;-78
2022/05/15 12:04:36;;;;;;;13.40;5.20;;;19.00;92.70;;;;;;5088446;28;20298;-77
2022/05/15 12:07:03;;;;;;;9.07;5.10;;;19.00;92.70;;;;;;5093111;28;20189;-76
2022/05/15 12:09:33;;;;;;;4.50;4.07;;;19.00;92.70;;;;;;5095003;28;20716;-78
2022/05/15 12:12:26;;;;;;;6.57;4.30;;;18.90;92.40;;;;;;5078203;28;20179;-78
2022/05/15 12:15:13;;;;;;;8.00;5.13;;;18.90;92.30;;;;;;5077422;28;20265;-77
2022/05/15 12:18:01;;;;;;;8.23;4.37;;;18.90;92.30;;;;;;5074309;28;20187;-73
2022/05/15 12:20:28;;;;;;;5.30;4.03;;;18.80;92.30;;;;;;5073979;28;20197;-72
2022/05/15 12:22:59;;;;;;;6.30;4.30;;;18.80;92.20;;;;;;5074565;28;20184;-73
2022/05/15 12:25:32;;;;;;;4.63;3.67;;;18.70;92.10;;;;;;5073074;28;20220;-74
2022/05/15 12:30:52;;;;;;;5.60;4.00;;;18.60;92.10;;;;;;5074220;28;20190;-74
2022/05/15 12:33:27;;;;;;;4.93;4.43;;;18.60;92.10;;;;;;5074221;28;20193;-74
2022/05/15 12:35:56;;;;;;;8.37;5.70;;;18.60;92.20;;;;;;5073386;28;20207;-74
2022/05/15 12:38:25;;;;;;;8.50;5.23;;;18.50;92.40;;;;;;5074183;28;20171;-74
2022/05/15 12:41:14;;;;;;;6.83;5.30;;;18.50;92.30;;;;;;5073129;28;20178;-73
2022/05/15 12:43:49;;;;;;;8.87;5.47;;;18.50;92.70;;;;;;5073324;28;20238;-74
2022/05/15 12:46:53;;;;;;;9.00;5.90;;;18.40;92.60;;;;;;5074332;28;20524;-77
2022/05/15 12:49:33;;;;;;;6.60;4.60;;;18.30;92.50;;;;;;5065733;28;20194;-74
2022/05/15 12:52:12;;;;;;;5.77;4.70;;;18.30;92.60;;;;;;5073353;28;20570;-73
2022/05/15 12:54:40;;;;;;;6.37;4.43;;;18.20;92.60;;;;;;5074108;28;20171;-73
2022/05/15 12:57:13;;;;;;;8.40;4.60;;;18.20;92.70;;;;;;5073816;28;20272;-75
2022/05/15 12:59:44;;;;;;;5.17;4.10;;;18.20;92.80;;;;;;5073253;28;20184;-73
2022/05/15 13:02:22;;;;;;;5.60;3.60;;;18.20;92.80;;;;;;5065754;28;20283;-74
2022/05/15 13:04:56;;;;;;;7.57;3.90;;;18.20;92.60;;;;;;5073376;28;20659;-74
2022/05/15 13:07:26;;;;;;;6.30;3.70;;;18.20;92.70;;;;;;5073890;28;20183;-74
2022/05/15 13:10:12;;;;;;;5.93;4.03;;;18.10;92.50;;;;;;5073497;28;20175;-74
2022/05/15 13:13:06;;;;;;;4.33;3.80;;;18.00;92.50;;;;;;5072970;28;20617;-74
2022/05/15 13:15:35;;;;;;;7.13;4.57;;;18.00;92.50;;;;;;5072794;28;20316;-75
2022/05/15 13:18:11;;;;;;;5.30;4.13;;;17.90;92.40;;;;;;5073132;28;20178;-76
2022/05/15 13:20:41;;;;;;;8.70;4.10;;;17.90;92.50;;;;;;5072896;28;20264;-75
2022/05/15 13:23:11;;;;;;;4.43;4.00;;;17.90;92.50;;;;;;5073959;28;20763;-74
2022/05/15 13:25:41;;;;;;;5.87;4.10;;;17.90;92.70;;;;;;5073203;28;20175;-76
2022/05/15 13:28:11;;;;;;;4.17;3.60;;;17.80;92.70;;;;;;5072945;28;20189;-74
2022/05/15 13:30:40;;;;;;;5.90;3.60;;;17.80;92.70;;;;;;5072096;28;20186;-75
2022/05/15 13:33:18;;;;;;;6.13;4.00;;;17.80;92.70;;;;;;5072885;28;20273;-78
2022/05/15 13:35:48;;;;;;;7.23;3.80;;;17.80;92.60;;;;;;5072737;28;20252;-78